createdAt,value
2022-12-15T00:02:19.010Z,10.97
2022-12-15T00:05:05.050Z,10.73
2022-12-15T00:07:50.822Z,11.63
2022-12-15T00:10:36.888Z,12.27
2022-12-15T00:13:22.942Z,12.77
2022-12-15T00:16:08.623Z,11.33
2022-12-15T00:18:54.613Z,11.07
2022-12-15T00:21:40.486Z,12.27
2022-12-15T00:24:26.182Z,11.33
2022-12-15T00:27:11.957Z,10.77
2022-12-15T00:29:57.869Z,10.63
2022-12-15T00:32:43.810Z,11.03
2022-12-15T00:35:30.223Z,10.23
2022-12-15T00:38:16.423Z,11.20
2022-12-15T00:40:43.547Z,11.27
2022-12-15T00:43:11.942Z,10.13
2022-12-15T00:45:57.933Z,11.27
2022-12-15T00:48:25.028Z,9.90
2022-12-15T00:50:52.086Z,10.83
2022-12-15T00:53:38.244Z,11.03
2022-12-15T00:56:24.352Z,10.60
2022-12-15T00:59:10.143Z,10.03
2022-12-15T01:01:56.227Z,9.60
2022-12-15T01:04:41.965Z,9.87
2022-12-15T01:07:27.790Z,9.30
2022-12-15T01:10:13.787Z,9.70
2022-12-15T01:12:59.705Z,10.87
2022-12-15T01:15:45.513Z,10.53
2022-12-15T01:18:31.464Z,9.63
2022-12-15T01:20:58.606Z,8.73
2022-12-15T01:23:25.744Z,9.43
2022-12-15T01:25:53.098Z,10.17
2022-12-15T01:28:20.929Z,9.40
2022-12-15T01:30:48.475Z,8.43
2022-12-15T01:33:16.170Z,9.87
2022-12-15T01:35:43.239Z,10.43
2022-12-15T01:38:10.713Z,9.13
2022-12-15T01:40:47.296Z,9.90
2022-12-15T01:43:17.436Z,9.90
2022-12-15T01:45:50.324Z,9.63
2022-12-15T01:48:30.147Z,10.07
2022-12-15T01:51:11.717Z,9.43
2022-12-15T01:53:41.584Z,9.97
2022-12-15T01:56:10.621Z,10.63
2022-12-15T01:58:38.402Z,10.00
2022-12-15T02:01:05.850Z,9.57
2022-12-15T02:03:33.588Z,10.03
2022-12-15T02:06:01.300Z,10.40
2022-12-15T02:08:28.540Z,9.97
2022-12-15T02:10:55.544Z,9.47
2022-12-15T02:13:35.888Z,9.57
2022-12-15T02:16:24.529Z,8.93
2022-12-15T02:19:11.580Z,9.77
2022-12-15T02:21:42.845Z,9.40
2022-12-15T02:24:20.094Z,9.47
2022-12-15T02:27:02.160Z,9.70
2022-12-15T02:29:47.710Z,9.43
2022-12-15T02:32:22.599Z,9.77
2022-12-15T02:35:02.698Z,8.80
2022-12-15T02:37:32.258Z,8.93
2022-12-15T02:39:59.655Z,9.60
2022-12-15T02:42:27.522Z,9.47
2022-12-15T02:45:01.340Z,9.67
2022-12-15T02:47:48.688Z,8.97
2022-12-15T02:50:18.819Z,8.67
2022-12-15T02:53:04.503Z,10.43
2022-12-15T02:55:34.573Z,9.67
2022-12-15T02:58:04.381Z,9.50
2022-12-15T03:00:34.030Z,11.20
2022-12-15T03:03:01.350Z,10.90
2022-12-15T03:05:28.688Z,10.67
2022-12-15T03:07:55.777Z,9.40
2022-12-15T03:10:23.885Z,9.40
2022-12-15T03:12:50.981Z,9.77
2022-12-15T03:15:18.913Z,9.07
2022-12-15T03:17:46.023Z,10.60
2022-12-15T03:20:13.096Z,10.23
2022-12-15T03:22:40.191Z,10.13
2022-12-15T03:25:07.443Z,9.23
2022-12-15T03:27:35.521Z,9.60
2022-12-15T03:30:02.624Z,9.50
2022-12-15T03:32:30.378Z,9.73
2022-12-15T03:34:57.478Z,9.80
2022-12-15T03:37:24.526Z,9.87
2022-12-15T03:39:51.576Z,8.53
2022-12-15T03:42:38.578Z,10.30
2022-12-15T03:45:05.853Z,9.80
2022-12-15T03:47:32.958Z,9.67
2022-12-15T03:50:00.037Z,10.80
2022-12-15T03:52:27.079Z,10.67
2022-12-15T03:54:54.134Z,9.80
2022-12-15T03:57:21.183Z,9.77
2022-12-15T03:59:48.237Z,10.53
2022-12-15T04:02:15.487Z,9.63
2022-12-15T04:04:42.698Z,10.00
2022-12-15T04:07:09.873Z,10.70
2022-12-15T04:09:37.449Z,9.90
2022-12-15T04:12:04.612Z,9.57
2022-12-15T04:14:31.707Z,10.87
2022-12-15T04:16:58.784Z,10.63
2022-12-15T04:19:44.563Z,11.30
2022-12-15T04:22:16.341Z,9.80
2022-12-15T04:25:03.592Z,10.77
2022-12-15T04:27:49.441Z,10.83
2022-12-15T04:30:35.383Z,8.97
2022-12-15T04:33:26.329Z,10.90
2022-12-15T04:36:15.372Z,10.73
2022-12-15T04:39:01.235Z,10.40
2022-12-15T04:41:47.092Z,10.93
2022-12-15T04:44:33.076Z,11.73
2022-12-15T04:47:19.886Z,10.97
2022-12-15T04:50:05.427Z,11.87
2022-12-15T04:52:51.457Z,12.13
2022-12-15T04:55:37.375Z,11.07
2022-12-15T04:58:29.381Z,10.73
2022-12-15T05:01:17.010Z,12.33
2022-12-15T05:04:02.868Z,11.50
2022-12-15T05:06:48.834Z,11.03
2022-12-15T05:09:34.858Z,11.10
2022-12-15T05:12:20.734Z,10.90
2022-12-15T05:15:06.297Z,11.63
2022-12-15T05:17:52.113Z,11.13
2022-12-15T05:20:37.920Z,12.47
2022-12-15T05:23:23.966Z,11.43
2022-12-15T05:26:09.548Z,11.90
2022-12-15T05:28:55.368Z,12.30
2022-12-15T05:31:41.305Z,12.43
2022-12-15T05:34:08.429Z,10.57
2022-12-15T05:36:35.525Z,11.87
2022-12-15T05:39:02.700Z,12.33
2022-12-15T05:41:29.848Z,12.97
2022-12-15T05:43:56.871Z,13.23
2022-12-15T05:46:24.007Z,13.60
2022-12-15T05:48:51.223Z,11.50
2022-12-15T05:51:18.315Z,11.40
2022-12-15T05:53:45.542Z,11.87
2022-12-15T05:56:14.120Z,12.30
2022-12-15T05:58:45.145Z,12.97
2022-12-15T06:01:14.677Z,13.57
2022-12-15T06:03:42.271Z,12.57
2022-12-15T06:06:10.017Z,13.77
2022-12-15T06:08:38.270Z,13.17
2022-12-15T06:11:05.747Z,12.47
2022-12-15T06:13:36.748Z,13.30
2022-12-15T06:16:07.152Z,14.37
2022-12-15T06:18:38.673Z,14.30
2022-12-15T06:21:07.310Z,13.00
2022-12-15T06:23:35.145Z,14.37
2022-12-15T06:26:13.028Z,14.60
2022-12-15T06:28:40.388Z,12.60
2022-12-15T06:31:08.850Z,14.17
2022-12-15T06:33:36.498Z,13.53
2022-12-15T06:36:08.536Z,13.23
2022-12-15T06:38:36.384Z,12.77
2022-12-15T06:41:04.630Z,13.13
2022-12-15T06:43:33.519Z,13.43
2022-12-15T06:46:01.869Z,13.13
2022-12-15T06:48:28.945Z,14.00
2022-12-15T06:50:56.027Z,13.50
2022-12-15T06:53:24.060Z,13.50
2022-12-15T06:55:51.231Z,14.23
2022-12-15T06:58:18.486Z,13.57
2022-12-15T07:00:46.550Z,20.13
2022-12-15T07:03:18.905Z,16.43
2022-12-15T07:05:46.370Z,15.63
2022-12-15T07:08:15.381Z,17.03
2022-12-15T07:10:43.981Z,14.20
2022-12-15T07:13:11.724Z,14.03
2022-12-15T07:15:39.116Z,14.40
2022-12-15T07:18:06.607Z,14.03
2022-12-15T07:20:34.086Z,15.17
2022-12-15T07:23:03.668Z,14.03
2022-12-15T07:25:30.819Z,14.70
2022-12-15T07:27:57.875Z,14.67
2022-12-15T07:30:24.931Z,15.57
2022-12-15T07:32:52.017Z,14.17
2022-12-15T07:35:19.081Z,15.20
2022-12-15T07:37:46.428Z,16.07
2022-12-15T07:40:13.856Z,15.13
2022-12-15T07:42:40.935Z,14.83
2022-12-15T07:45:08.406Z,15.07
2022-12-15T07:47:36.020Z,16.03
2022-12-15T07:50:03.246Z,14.57
2022-12-15T07:52:31.066Z,15.77
2022-12-15T07:54:58.159Z,15.50
2022-12-15T07:57:25.248Z,14.27
2022-12-15T07:59:52.420Z,14.90
2022-12-15T08:02:19.600Z,14.40
2022-12-15T08:04:47.130Z,15.40
2022-12-15T08:07:14.243Z,15.40
2022-12-15T08:09:41.297Z,15.67
2022-12-15T08:12:08.398Z,15.33
2022-12-15T08:14:35.462Z,15.83
2022-12-15T08:17:02.649Z,17.47
2022-12-15T08:19:30.710Z,17.33
2022-12-15T08:21:58.438Z,15.90
2022-12-15T08:24:25.517Z,16.60
2022-12-15T08:26:53.193Z,16.83
2022-12-15T08:32:07.694Z,15.70
2022-12-15T08:34:35.495Z,17.47
2022-12-15T08:37:02.550Z,18.30
2022-12-15T08:39:29.682Z,17.07
2022-12-15T08:41:56.764Z,18.07
2022-12-15T08:44:23.808Z,17.00
2022-12-15T08:46:51.305Z,16.63
2022-12-15T08:49:22.117Z,18.40
2022-12-15T08:51:50.553Z,17.47
2022-12-15T08:54:19.531Z,16.50
2022-12-15T08:56:46.746Z,17.73
2022-12-15T08:59:13.777Z,17.97
2022-12-15T09:01:41.651Z,18.17
2022-12-15T09:04:08.939Z,16.73
2022-12-15T09:06:36.868Z,16.40
2022-12-15T09:09:07.206Z,19.60
2022-12-15T09:11:34.492Z,17.50
2022-12-15T09:14:01.680Z,18.60
2022-12-15T09:16:28.964Z,18.50
2022-12-15T09:18:57.373Z,19.40
2022-12-15T09:21:26.844Z,19.23
2022-12-15T09:23:54.982Z,18.97
2022-12-15T09:26:23.064Z,19.00
2022-12-15T09:28:51.153Z,18.13
2022-12-15T09:31:23.044Z,17.50
2022-12-15T09:33:51.220Z,17.97
2022-12-15T09:36:18.430Z,18.20
2022-12-15T09:38:45.519Z,20.20
2022-12-15T09:41:15.582Z,18.97
2022-12-15T09:43:47.749Z,19.47
2022-12-15T09:46:34.900Z,19.33
2022-12-15T09:49:04.587Z,18.10
2022-12-15T09:51:39.487Z,19.57
2022-12-15T09:54:07.251Z,18.57
2022-12-15T09:56:42.902Z,20.87
2022-12-15T09:59:22.775Z,19.83
2022-12-15T10:02:08.891Z,19.57
2022-12-15T10:04:47.361Z,19.70
2022-12-15T10:07:29.802Z,19.13
2022-12-15T10:09:57.182Z,19.87
2022-12-15T10:12:29.891Z,20.97
2022-12-15T10:15:02.823Z,20.80
2022-12-15T10:17:44.184Z,20.43
2022-12-15T10:20:18.783Z,20.70
2022-12-15T10:22:45.866Z,19.27
2022-12-15T10:25:30.371Z,20.70
2022-12-15T10:27:57.986Z,20.77
2022-12-15T10:30:25.382Z,20.40
2022-12-15T10:33:04.887Z,20.03
2022-12-15T10:35:33.664Z,19.80
2022-12-15T10:38:05.949Z,19.33
2022-12-15T10:40:51.005Z,21.97
2022-12-15T10:43:30.021Z,19.70
2022-12-15T10:46:18.357Z,20.30
2022-12-15T10:48:50.100Z,21.27
2022-12-15T10:51:20.190Z,20.93
2022-12-15T10:53:52.589Z,19.77
2022-12-15T10:56:30.637Z,20.23
2022-12-15T10:59:01.752Z,19.87
2022-12-15T11:01:33.194Z,20.07
2022-12-15T11:04:00.908Z,19.50
2022-12-15T11:06:29.900Z,19.00
2022-12-15T11:08:58.544Z,19.40
2022-12-15T11:11:46.001Z,19.80
2022-12-15T11:14:15.698Z,19.77
2022-12-15T11:16:45.699Z,19.13
2022-12-15T11:19:21.778Z,19.47
2022-12-15T11:21:52.533Z,20.37
2022-12-15T11:24:29.597Z,20.50
2022-12-15T11:27:02.429Z,19.43
2022-12-15T11:29:44.530Z,20.10
2022-12-15T11:32:13.003Z,19.30
2022-12-15T11:34:43.159Z,20.50
2022-12-15T11:37:34.167Z,20.13
2022-12-15T11:40:21.733Z,21.93
2022-12-15T11:42:48.859Z,21.67
2022-12-15T11:45:21.632Z,21.63
2022-12-15T11:47:51.644Z,21.87
2022-12-15T11:50:26.879Z,22.30
2022-12-15T11:52:53.917Z,21.10
2022-12-15T11:55:32.059Z,20.50
2022-12-15T11:58:24.565Z,20.60
2022-12-15T12:00:56.536Z,20.10
2022-12-15T12:03:26.967Z,22.30
2022-12-15T12:06:06.064Z,29.83
2022-12-15T12:08:55.072Z,25.13
2022-12-15T12:11:27.308Z,24.03
2022-12-15T12:13:54.609Z,21.50
2022-12-15T12:16:21.662Z,21.73
2022-12-15T12:19:06.354Z,21.43
2022-12-15T12:21:37.325Z,21.47
2022-12-15T12:24:10.490Z,20.10
2022-12-15T12:26:48.483Z,20.77
2022-12-15T12:29:20.174Z,21.20
2022-12-15T12:32:05.930Z,18.40
2022-12-15T12:34:42.125Z,19.33
2022-12-15T12:37:21.053Z,19.20
2022-12-15T12:39:48.911Z,21.50
2022-12-15T12:42:19.639Z,18.53
2022-12-15T12:44:46.795Z,20.70
2022-12-15T12:47:15.673Z,18.77
2022-12-15T12:49:45.795Z,19.10
2022-12-15T12:52:26.501Z,18.60
2022-12-15T12:54:56.966Z,20.07
2022-12-15T12:57:30.279Z,20.13
2022-12-15T12:59:57.306Z,19.73
2022-12-15T13:02:26.007Z,20.23
2022-12-15T13:05:05.075Z,19.53
2022-12-15T13:07:32.162Z,21.00
2022-12-15T13:10:19.057Z,20.73
2022-12-15T13:12:51.994Z,20.30
2022-12-15T13:15:22.546Z,19.80
2022-12-15T13:17:51.807Z,20.30
2022-12-15T13:20:23.739Z,20.80
2022-12-15T13:22:51.442Z,18.57
2022-12-15T13:25:38.583Z,19.90
2022-12-15T13:28:20.395Z,19.63
2022-12-15T13:31:06.559Z,20.00
2022-12-15T13:33:34.153Z,19.97
2022-12-15T13:36:01.620Z,20.40
2022-12-15T13:38:48.675Z,20.70
2022-12-15T13:41:24.507Z,19.90
2022-12-15T13:43:54.286Z,20.23
2022-12-15T13:46:25.182Z,21.23
2022-12-15T13:48:55.174Z,21.60
2022-12-15T13:51:35.889Z,20.50
2022-12-15T13:54:23.216Z,20.03
2022-12-15T13:56:56.506Z,20.40
2022-12-15T13:59:43.219Z,20.20
2022-12-15T14:02:29.195Z,20.20
2022-12-15T14:05:11.529Z,21.63
2022-12-15T14:07:39.838Z,22.00
2022-12-15T14:10:09.588Z,21.53
2022-12-15T14:12:39.753Z,20.53
2022-12-15T14:15:08.062Z,21.30
2022-12-15T14:17:36.790Z,21.77
2022-12-15T14:20:11.619Z,21.27
2022-12-15T14:22:43.130Z,20.87
2022-12-15T14:25:27.934Z,21.77
2022-12-15T14:27:55.001Z,21.17
2022-12-15T14:30:28.217Z,21.77
2022-12-15T14:33:09.368Z,20.50
2022-12-15T14:35:42.566Z,21.27
2022-12-15T14:38:13.866Z,22.33
2022-12-15T14:40:41.387Z,21.93
2022-12-15T14:43:12.505Z,22.00
2022-12-15T14:45:39.921Z,21.60
2022-12-15T14:50:55.396Z,22.80
2022-12-15T14:53:24.117Z,22.73
2022-12-15T14:55:51.501Z,21.97
2022-12-15T14:58:33.720Z,22.07
2022-12-15T15:01:02.257Z,23.37
2022-12-15T15:03:39.253Z,22.63
2022-12-15T15:06:16.833Z,22.77
2022-12-15T15:08:47.722Z,22.50
2022-12-15T15:11:23.913Z,22.13
2022-12-15T15:13:53.956Z,21.97
2022-12-15T15:16:23.558Z,22.07
2022-12-15T15:18:51.826Z,23.87
2022-12-15T15:21:20.970Z,23.50
2022-12-15T15:23:59.956Z,21.83
2022-12-15T15:26:27.573Z,23.63
2022-12-15T15:28:54.817Z,25.43
2022-12-15T15:31:25.124Z,25.73
2022-12-15T15:33:52.861Z,25.23
2022-12-15T15:36:20.069Z,23.97
2022-12-15T15:38:47.325Z,26.47
2022-12-15T15:41:18.705Z,25.40
2022-12-15T15:43:46.549Z,27.93
2022-12-15T15:46:15.207Z,25.30
2022-12-15T15:48:47.296Z,25.73
2022-12-15T15:51:14.587Z,28.17
2022-12-15T15:53:41.688Z,27.60
2022-12-15T15:56:11.581Z,25.70
2022-12-15T15:58:38.764Z,26.93
2022-12-15T16:01:12.673Z,27.63
2022-12-15T16:03:40.414Z,25.53
2022-12-15T16:06:14.859Z,27.00
2022-12-15T16:08:42.033Z,25.50
2022-12-15T16:11:11.002Z,26.67
2022-12-15T16:13:38.201Z,26.37
2022-12-15T16:16:06.270Z,27.00
2022-12-15T16:18:33.704Z,25.80
2022-12-15T16:21:01.159Z,23.80
2022-12-15T16:23:29.643Z,25.07
2022-12-15T16:26:00.302Z,23.27
2022-12-15T16:28:29.220Z,25.23
2022-12-15T16:30:58.633Z,24.67
2022-12-15T16:33:26.076Z,25.37
2022-12-15T16:35:53.902Z,24.60
2022-12-15T16:38:24.033Z,25.73
2022-12-15T16:40:51.590Z,27.00
2022-12-15T16:43:21.887Z,28.03
2022-12-15T16:45:50.673Z,25.77
2022-12-15T16:48:19.347Z,28.50
2022-12-15T16:50:50.300Z,30.53
2022-12-15T16:53:31.577Z,29.97
2022-12-15T16:55:59.905Z,31.73
2022-12-15T16:58:28.346Z,32.10
2022-12-15T17:00:56.016Z,30.37
2022-12-15T17:03:26.006Z,31.07
2022-12-15T17:05:57.990Z,30.87
2022-12-15T17:08:40.383Z,31.77
2022-12-15T17:11:08.060Z,31.20
2022-12-15T17:13:42.118Z,29.87
2022-12-15T17:16:16.380Z,29.93
2022-12-15T17:18:44.662Z,31.27
2022-12-15T17:21:17.518Z,29.13
2022-12-15T17:23:45.738Z,29.67
2022-12-15T17:26:27.697Z,29.97
2022-12-15T17:28:57.063Z,29.70
2022-12-15T17:31:30.206Z,31.07
2022-12-15T17:34:02.499Z,30.40
2022-12-15T17:36:29.619Z,31.20
2022-12-15T17:39:01.804Z,33.33
2022-12-15T17:41:58.090Z,33.00
2022-12-15T17:44:33.140Z,31.33
2022-12-15T17:47:02.246Z,30.67
2022-12-15T17:49:35.017Z,31.33
2022-12-15T17:52:04.493Z,32.00
2022-12-15T17:54:31.593Z,31.27
2022-12-15T17:56:58.815Z,35.37
2022-12-15T17:59:25.992Z,32.87
2022-12-15T18:01:57.080Z,32.00
2022-12-15T18:04:24.751Z,30.77
2022-12-15T18:06:59.579Z,30.73
2022-12-15T18:09:31.783Z,31.70
2022-12-15T18:11:59.852Z,32.40
2022-12-15T18:14:28.024Z,31.23
2022-12-15T18:16:55.268Z,30.40
2022-12-15T18:19:23.376Z,30.73
2022-12-15T18:21:50.578Z,29.70
2022-12-15T18:24:21.705Z,31.83
2022-12-15T18:26:48.892Z,31.47
2022-12-15T18:29:19.878Z,31.13
2022-12-15T18:31:48.209Z,28.10
2022-12-15T18:34:20.980Z,30.57
2022-12-15T18:36:48.071Z,31.50
2022-12-15T18:39:26.198Z,28.23
2022-12-15T18:41:57.219Z,30.47
2022-12-15T18:44:28.441Z,29.37
2022-12-15T18:46:55.813Z,29.67
2022-12-15T18:49:23.544Z,29.67
2022-12-15T18:51:51.027Z,29.30
2022-12-15T18:54:19.336Z,28.93
2022-12-15T18:56:46.512Z,27.43
2022-12-15T18:59:17.215Z,28.60
2022-12-15T19:01:48.931Z,34.10
2022-12-15T19:04:16.671Z,35.97
2022-12-15T19:06:43.905Z,34.43
2022-12-15T19:09:15.553Z,33.70
2022-12-15T19:12:02.687Z,33.03
2022-12-15T19:14:42.713Z,30.30
2022-12-15T19:17:32.898Z,26.80
2022-12-15T19:20:19.651Z,26.93
2022-12-15T19:22:48.473Z,27.80
2022-12-15T19:25:25.466Z,27.83
2022-12-15T19:27:58.875Z,28.73
2022-12-15T19:30:27.492Z,29.70
2022-12-15T19:32:54.755Z,29.63
2022-12-15T19:35:22.425Z,32.47
2022-12-15T19:37:50.035Z,36.00
2022-12-15T19:40:22.352Z,34.80
2022-12-15T19:42:49.618Z,34.43
2022-12-15T19:45:21.878Z,32.17
2022-12-15T19:47:49.150Z,29.40
2022-12-15T19:50:16.944Z,25.87
2022-12-15T19:52:55.929Z,25.23
2022-12-15T19:55:26.329Z,25.13
2022-12-15T19:57:53.476Z,26.57
2022-12-15T20:00:22.024Z,25.30
2022-12-15T20:02:51.320Z,27.60
2022-12-15T20:05:19.204Z,25.50
2022-12-15T20:07:47.001Z,28.93
2022-12-15T20:10:27.650Z,27.57
2022-12-15T20:12:58.720Z,26.73
2022-12-15T20:15:26.379Z,26.33
2022-12-15T20:17:57.457Z,29.07
2022-12-15T20:20:26.788Z,27.27
2022-12-15T20:22:55.560Z,26.57
2022-12-15T20:25:27.138Z,27.30
2022-12-15T20:27:54.380Z,27.67
2022-12-15T20:30:26.105Z,27.60
2022-12-15T20:32:53.463Z,26.77
2022-12-15T20:35:21.719Z,27.30
2022-12-15T20:37:49.459Z,27.40
2022-12-15T20:40:21.271Z,29.63
2022-12-15T20:42:48.510Z,27.90
2022-12-15T20:45:16.492Z,25.97
2022-12-15T20:47:44.737Z,28.80
2022-12-15T20:50:25.650Z,29.07
2022-12-15T20:52:53.324Z,30.97
2022-12-15T20:55:22.575Z,31.53
2022-12-15T20:57:49.744Z,31.33
2022-12-15T21:00:18.241Z,29.93
2022-12-15T21:02:45.920Z,29.40
2022-12-15T21:05:20.613Z,26.83
2022-12-15T21:07:48.091Z,26.83
2022-12-15T21:10:16.330Z,27.00
2022-12-15T21:12:44.400Z,28.53
2022-12-15T21:15:15.680Z,27.63
2022-12-15T21:17:43.148Z,27.50
2022-12-15T21:20:13.877Z,25.07
2022-12-15T21:22:41.758Z,26.83
2022-12-15T21:25:25.038Z,27.90
2022-12-15T21:27:52.734Z,26.80
2022-12-15T21:30:21.479Z,27.20
2022-12-15T21:32:49.592Z,27.10
2022-12-15T21:35:18.881Z,25.77
2022-12-15T21:37:48.214Z,26.80
2022-12-15T21:40:23.842Z,27.80
2022-12-15T21:42:51.295Z,26.93
2022-12-15T21:45:19.647Z,27.80
2022-12-15T21:48:13.986Z,27.53
2022-12-15T21:50:43.185Z,26.50
2022-12-15T21:53:16.700Z,26.93
2022-12-15T21:56:34.002Z,26.77
2022-12-15T21:59:01.353Z,25.70
2022-12-15T22:01:29.799Z,26.97
2022-12-15T22:03:58.273Z,27.33
2022-12-15T22:06:30.341Z,26.47
2022-12-15T22:09:01.141Z,27.07
2022-12-15T22:11:29.953Z,27.97
2022-12-15T22:13:59.665Z,28.80
2022-12-15T22:16:27.264Z,26.27
2022-12-15T22:18:55.677Z,29.63
2022-12-15T22:23:53.303Z,25.43
2022-12-15T22:26:38.913Z,24.80
2022-12-15T22:29:27.342Z,26.70
2022-12-15T22:31:55.081Z,27.60
2022-12-15T22:34:23.825Z,26.77
2022-12-15T22:36:52.004Z,27.97
2022-12-15T22:39:19.865Z,26.10
2022-12-15T22:41:48.993Z,26.10
2022-12-15T22:44:18.679Z,26.80
2022-12-15T22:46:46.268Z,26.10
2022-12-15T22:49:18.037Z,26.00
2022-12-15T22:51:45.951Z,24.37
2022-12-15T22:54:20.364Z,24.33
2022-12-15T22:56:53.257Z,25.67
2022-12-15T22:59:26.107Z,24.63
2022-12-15T23:01:53.453Z,24.47
2022-12-15T23:04:24.858Z,25.10
2022-12-15T23:06:52.193Z,25.50
2022-12-15T23:09:19.502Z,25.33
2022-12-15T23:11:46.578Z,24.27
2022-12-15T23:14:14.969Z,23.17
2022-12-15T23:16:42.627Z,23.10
2022-12-15T23:19:10.112Z,22.50
2022-12-15T23:21:37.444Z,24.07
2022-12-15T23:24:04.609Z,21.17
2022-12-15T23:26:31.996Z,23.67
2022-12-15T23:28:59.207Z,23.73
2022-12-15T23:31:28.960Z,23.90
2022-12-15T23:33:56.148Z,23.17
2022-12-15T23:36:23.837Z,23.00
2022-12-15T23:38:51.266Z,23.27
2022-12-15T23:44:13.123Z,22.97
2022-12-15T23:46:47.970Z,22.87
2022-12-15T23:49:15.333Z,22.77
2022-12-15T23:51:42.512Z,23.30
2022-12-15T23:54:10.125Z,22.50
2022-12-15T23:56:40.541Z,23.23
2022-12-15T23:59:07.961Z,23.17
